sensor_id;sensor_type;location;lat;lon;timestamp;pressure;altitude;pressure_sealevel;temperature;humidity
59289;BME280;45056;47.602;9.886;2023-04-23T00:01:17;92414.69;;;14.90;51.24
59289;BME280;45056;47.602;9.886;2023-04-23T00:03:47;92409.97;;;14.90;51.02
59289;BME280;45056;47.602;9.886;2023-04-23T00:06:16;92414.69;;;14.90;50.85
59289;BME280;45056;47.602;9.886;2023-04-23T00:08:46;92407.97;;;14.91;50.77
59289;BME280;45056;47.602;9.886;2023-04-23T00:11:18;92421.66;;;14.91;51.38
59289;BME280;45056;47.602;9.886;2023-04-23T00:13:47;92415.44;;;14.90;52.19
59289;BME280;45056;47.602;9.886;2023-04-23T00:16:18;92420.38;;;14.86;52.66
59289;BME280;45056;47.602;9.886;2023-04-23T00:18:47;92419.81;;;14.82;52.45
59289;BME280;45056;47.602;9.886;2023-04-23T00:21:15;92416.81;;;14.80;52.42
59289;BME280;45056;47.602;9.886;2023-04-23T00:23:43;92418.81;;;14.79;52.15
59289;BME280;45056;47.602;9.886;2023-04-23T00:26:11;92418.81;;;14.79;51.98
59289;BME280;45056;47.602;9.886;2023-04-23T00:28:39;92422.78;;;14.78;52.04
59289;BME280;45056;47.602;9.886;2023-04-23T00:31:07;92418.56;;;14.77;52.11
59289;BME280;45056;47.602;9.886;2023-04-23T00:33:36;92431.97;;;14.75;52.04
59289;BME280;45056;47.602;9.886;2023-04-23T00:36:06;92428.75;;;14.77;52.20
59289;BME280;45056;47.602;9.886;2023-04-23T00:38:34;92429.50;;;14.77;52.41
59289;BME280;45056;47.602;9.886;2023-04-23T00:41:02;92425.25;;;14.76;53.00
59289;BME280;45056;47.602;9.886;2023-04-23T00:43:32;92434.72;;;14.75;53.90
59289;BME280;45056;47.602;9.886;2023-04-23T00:46:00;92434.16;;;14.71;53.89
59289;BME280;45056;47.602;9.886;2023-04-23T00:48:29;92438.78;;;14.65;53.74
59289;BME280;45056;47.602;9.886;2023-04-23T00:51:03;92440.69;;;14.58;54.23
59289;BME280;45056;47.602;9.886;2023-04-23T00:53:32;92448.38;;;14.54;54.44
59289;BME280;45056;47.602;9.886;2023-04-23T00:56:03;92448.28;;;14.49;55.25
59289;BME280;45056;47.602;9.886;2023-04-23T00:58:32;92454.19;;;14.41;55.70
59289;BME280;45056;47.602;9.886;2023-04-23T01:01:01;92451.09;;;14.34;56.11
59289;BME280;45056;47.602;9.886;2023-04-23T01:03:30;92446.03;;;14.26;56.81
59289;BME280;45056;47.602;9.886;2023-04-23T01:06:03;92448.41;;;14.19;57.23
59289;BME280;45056;47.602;9.886;2023-04-23T01:08:33;92455.06;;;14.12;57.79
59289;BME280;45056;47.602;9.886;2023-04-23T01:11:02;92451.50;;;14.06;58.29
59289;BME280;45056;47.602;9.886;2023-04-23T01:13:31;92445.16;;;13.99;58.70
59289;BME280;45056;47.602;9.886;2023-04-23T01:16:01;92444.16;;;13.97;58.75
59289;BME280;45056;47.602;9.886;2023-04-23T01:18:29;92440.19;;;13.98;58.86
59289;BME280;45056;47.602;9.886;2023-04-23T01:20:57;92434.22;;;13.99;59.35
59289;BME280;45056;47.602;9.886;2023-04-23T01:23:27;92432.44;;;13.96;60.03
59289;BME280;45056;47.602;9.886;2023-04-23T01:25:56;92441.31;;;13.91;60.62
59289;BME280;45056;47.602;9.886;2023-04-23T01:28:25;92445.00;;;13.88;60.71
59289;BME280;45056;47.602;9.886;2023-04-23T01:30:54;92439.72;;;13.84;60.91
59289;BME280;45056;47.602;9.886;2023-04-23T01:33:23;92448.88;;;13.81;61.31
59289;BME280;45056;47.602;9.886;2023-04-23T01:35:54;92458.53;;;13.77;61.94
59289;BME280;45056;47.602;9.886;2023-04-23T01:38:24;92453.25;;;13.73;62.24
59289;BME280;45056;47.602;9.886;2023-04-23T01:40:57;92454.94;;;13.70;62.64
59289;BME280;45056;47.602;9.886;2023-04-23T01:43:25;92451.91;;;13.68;62.65
59289;BME280;45056;47.602;9.886;2023-04-23T01:45:55;92455.31;;;13.63;62.75
59289;BME280;45056;47.602;9.886;2023-04-23T01:48:24;92457.97;;;13.58;62.70
59289;BME280;45056;47.602;9.886;2023-04-23T01:50:53;92463.16;;;13.55;62.73
59289;BME280;45056;47.602;9.886;2023-04-23T01:53:21;92460.91;;;13.54;62.82
59289;BME280;45056;47.602;9.886;2023-04-23T01:55:51;92465.88;;;13.55;62.73
59289;BME280;45056;47.602;9.886;2023-04-23T01:58:20;92476.34;;;13.57;62.67
59289;BME280;45056;47.602;9.886;2023-04-23T02:00:49;92478.63;;;13.59;62.69
59289;BME280;45056;47.602;9.886;2023-04-23T02:03:17;92480.59;;;13.58;62.84
59289;BME280;45056;47.602;9.886;2023-04-23T02:05:47;92480.88;;;13.60;63.02
59289;BME280;45056;47.602;9.886;2023-04-23T02:08:16;92486.06;;;13.58;63.27
59289;BME280;45056;47.602;9.886;2023-04-23T02:10:46;92479.09;;;13.57;63.40
59289;BME280;45056;47.602;9.886;2023-04-23T02:13:16;92483.03;;;13.56;63.57
59289;BME280;45056;47.602;9.886;2023-04-23T02:15:44;92483.31;;;13.58;63.42
59289;BME280;45056;47.602;9.886;2023-04-23T02:18:14;92486.06;;;13.58;63.36
59289;BME280;45056;47.602;9.886;2023-04-23T02:20:44;92490.78;;;13.58;63.41
59289;BME280;45056;47.602;9.886;2023-04-23T02:23:12;92492.75;;;13.57;63.41
59289;BME280;45056;47.602;9.886;2023-04-23T02:25:40;92492.47;;;13.55;63.67
59289;BME280;45056;47.602;9.886;2023-04-23T02:28:08;92490.97;;;13.54;63.70
59289;BME280;45056;47.602;9.886;2023-04-23T02:30:40;92489.63;;;13.49;63.67
59289;BME280;45056;47.602;9.886;2023-04-23T02:33:11;92487.38;;;13.48;63.76
59289;BME280;45056;47.602;9.886;2023-04-23T02:35:39;92489.84;;;13.46;63.72
59289;BME280;45056;47.602;9.886;2023-04-23T02:38:08;92484.09;;;13.44;63.44
59289;BME280;45056;47.602;9.886;2023-04-23T02:40:37;92484.53;;;13.42;63.22
59289;BME280;45056;47.602;9.886;2023-04-23T02:43:05;92489.22;;;13.41;63.31
59289;BME280;45056;47.602;9.886;2023-04-23T02:45:33;92493.19;;;13.40;63.48
59289;BME280;45056;47.602;9.886;2023-04-23T02:48:03;92492.91;;;13.38;63.56
59289;BME280;45056;47.602;9.886;2023-04-23T02:50:31;92497.78;;;13.34;63.73
59289;BME280;45056;47.602;9.886;2023-04-23T02:52:59;92490.53;;;13.31;63.42
59289;BME280;45056;47.602;9.886;2023-04-23T02:55:27;92488.47;;;13.26;63.28
59289;BME280;45056;47.602;9.886;2023-04-23T02:57:57;92496.84;;;13.22;63.33
59289;BME280;45056;47.602;9.886;2023-04-23T03:00:26;92496.28;;;13.18;63.69
59289;BME280;45056;47.602;9.886;2023-04-23T03:02:55;92494.97;;;13.13;63.72
59289;BME280;45056;47.602;9.886;2023-04-23T03:05:24;92496.81;;;13.07;63.91
59289;BME280;45056;47.602;9.886;2023-04-23T03:07:52;92495.97;;;13.01;64.40
59289;BME280;45056;47.602;9.886;2023-04-23T03:10:20;92503.31;;;12.95;64.43
59289;BME280;45056;47.602;9.886;2023-04-23T03:12:51;92497.44;;;12.87;64.71
59289;BME280;45056;47.602;9.886;2023-04-23T03:15:20;92500.06;;;12.81;64.82
59289;BME280;45056;47.602;9.886;2023-04-23T03:17:47;92499.47;;;12.77;65.06
59289;BME280;45056;47.602;9.886;2023-04-23T03:20:16;92502.41;;;12.74;65.05
59289;BME280;45056;47.602;9.886;2023-04-23T03:22:46;92508.50;;;12.68;65.24
59289;BME280;45056;47.602;9.886;2023-04-23T03:25:14;92515.66;;;12.66;65.50
59289;BME280;45056;47.602;9.886;2023-04-23T03:27:42;92513.84;;;12.63;65.38
59289;BME280;45056;47.602;9.886;2023-04-23T03:30:10;92512.06;;;12.60;65.38
59289;BME280;45056;47.602;9.886;2023-04-23T03:32:39;92510.53;;;12.59;65.41
59289;BME280;45056;47.602;9.886;2023-04-23T03:35:07;92499.78;;;12.55;65.24
59289;BME280;45056;47.602;9.886;2023-04-23T03:37:36;92510.41;;;12.53;65.40
59289;BME280;45056;47.602;9.886;2023-04-23T03:40:07;92510.13;;;12.51;65.67
59289;BME280;45056;47.602;9.886;2023-04-23T03:42:35;92504.09;;;12.47;65.77
59289;BME280;45056;47.602;9.886;2023-04-23T03:45:04;92501.81;;;12.45;65.70
59289;BME280;45056;47.602;9.886;2023-04-23T03:47:33;92507.28;;;12.45;65.70
59289;BME280;45056;47.602;9.886;2023-04-23T03:50:02;92499.38;;;12.47;65.54
59289;BME280;45056;47.602;9.886;2023-04-23T03:52:30;92498.63;;;12.47;65.47
59289;BME280;45056;47.602;9.886;2023-04-23T03:54:58;92496.34;;;12.45;65.48
59289;BME280;45056;47.602;9.886;2023-04-23T03:57:28;92502.09;;;12.47;65.48
59289;BME280;45056;47.602;9.886;2023-04-23T03:59:56;92508.31;;;12.48;65.33
59289;BME280;45056;47.602;9.886;2023-04-23T04:02:24;92503.16;;;12.50;65.35
59289;BME280;45056;47.602;9.886;2023-04-23T04:04:52;92505.16;;;12.49;65.02
59289;BME280;45056;47.602;9.886;2023-04-23T04:07:20;92502.09;;;12.47;65.00
59289;BME280;45056;47.602;9.886;2023-04-23T04:09:48;92502.28;;;12.44;65.37
59289;BME280;45056;47.602;9.886;2023-04-23T04:12:16;92500.03;;;12.42;65.34
59289;BME280;45056;47.602;9.886;2023-04-23T04:14:45;92505.03;;;12.44;65.21
59289;BME280;45056;47.602;9.886;2023-04-23T04:17:13;92512.16;;;12.41;65.44
59289;BME280;45056;47.602;9.886;2023-04-23T04:19:41;92513.06;;;12.38;65.71
59289;BME280;45056;47.602;9.886;2023-04-23T04:22:09;92514.31;;;12.37;65.44
59289;BME280;45056;47.602;9.886;2023-04-23T04:24:37;92510.22;;;12.32;65.51
59289;BME280;45056;47.602;9.886;2023-04-23T04:27:07;92515.09;;;12.28;65.46
59289;BME280;45056;47.602;9.886;2023-04-23T04:29:35;92505.13;;;12.25;65.53
59289;BME280;45056;47.602;9.886;2023-04-23T04:32:08;92501.66;;;12.24;65.54
59289;BME280;45056;47.602;9.886;2023-04-23T04:34:37;92497.41;;;12.23;65.42
59289;BME280;45056;47.602;9.886;2023-04-23T04:37:05;92509.81;;;12.24;65.40
59289;BME280;45056;47.602;9.886;2023-04-23T04:39:35;92500.59;;;12.22;65.30
59289;BME280;45056;47.602;9.886;2023-04-23T04:42:03;92494.41;;;12.21;65.44
59289;BME280;45056;47.602;9.886;2023-04-23T04:44:32;92495.91;;;12.22;65.26
59289;BME280;45056;47.602;9.886;2023-04-23T04:47:02;92489.69;;;12.22;65.09
59289;BME280;45056;47.602;9.886;2023-04-23T04:49:32;92495.13;;;12.22;65.04
59289;BME280;45056;47.602;9.886;2023-04-23T04:52:00;92495.41;;;12.24;64.96
59289;BME280;45056;47.602;9.886;2023-04-23T04:54:28;92507.09;;;12.24;64.69
59289;BME280;45056;47.602;9.886;2023-04-23T04:56:56;92500.44;;;12.25;64.61
59289;BME280;45056;47.602;9.886;2023-04-23T04:59:24;92508.59;;;12.25;64.52
59289;BME280;45056;47.602;9.886;2023-04-23T05:01:52;92507.84;;;12.25;64.33
59289;BME280;45056;47.602;9.886;2023-04-23T05:04:21;92505.88;;;12.25;64.33
59289;BME280;45056;47.602;9.886;2023-04-23T05:06:50;92496.19;;;12.24;64.24
59289;BME280;45056;47.602;9.886;2023-04-23T05:09:18;92497.41;;;12.23;64.36
59289;BME280;45056;47.602;9.886;2023-04-23T05:11:46;92501.06;;;12.20;64.39
59289;BME280;45056;47.602;9.886;2023-04-23T05:14:14;92506.53;;;12.20;64.60
59289;BME280;45056;47.602;9.886;2023-04-23T05:16:42;92495.31;;;12.18;64.54
59289;BME280;45056;47.602;9.886;2023-04-23T05:19:11;92500.78;;;12.18;64.57
59289;BME280;45056;47.602;9.886;2023-04-23T05:21:39;92499.56;;;12.19;64.56
59289;BME280;45056;47.602;9.886;2023-04-23T05:24:09;92499.56;;;12.19;64.48
59289;BME280;45056;47.602;9.886;2023-04-23T05:26:37;92497.56;;;12.20;64.62
59289;BME280;45056;47.602;9.886;2023-04-23T05:29:05;92503.94;;;12.17;64.71
59289;BME280;45056;47.602;9.886;2023-04-23T05:31:33;92499.72;;;12.16;64.70
59289;BME280;45056;47.602;9.886;2023-04-23T05:34:01;92502.44;;;12.16;65.01
59289;BME280;45056;47.602;9.886;2023-04-23T05:36:29;92505.63;;;12.14;65.22
59289;BME280;45056;47.602;9.886;2023-04-23T05:38:57;92505.31;;;12.12;65.38
59289;BME280;45056;47.602;9.886;2023-04-23T05:41:26;92504.59;;;12.11;65.46
59289;BME280;45056;47.602;9.886;2023-04-23T05:43:54;92501.88;;;12.11;65.70
59289;BME280;45056;47.602;9.886;2023-04-23T05:46:22;92517.28;;;12.15;65.64
59289;BME280;45056;47.602;9.886;2023-04-23T05:48:50;92505.63;;;12.14;65.68
59289;BME280;45056;47.602;9.886;2023-04-23T05:51:19;92505.63;;;12.14;65.83
59289;BME280;45056;47.602;9.886;2023-04-23T05:53:47;92507.31;;;12.11;65.88
59289;BME280;45056;47.602;9.886;2023-04-23T05:56:15;92505.03;;;12.10;65.99
59289;BME280;45056;47.602;9.886;2023-04-23T05:58:45;92510.50;;;12.10;66.16
59289;BME280;45056;47.602;9.886;2023-04-23T06:01:13;92513.22;;;12.10;66.09
59289;BME280;45056;47.602;9.886;2023-04-23T06:03:41;92519.72;;;12.12;66.19
59289;BME280;45056;47.602;9.886;2023-04-23T06:06:10;92508.06;;;12.12;66.23
59289;BME280;45056;47.602;9.886;2023-04-23T06:08:38;92511.84;;;12.15;66.06
59289;BME280;45056;47.602;9.886;2023-04-23T06:11:06;92509.41;;;12.17;65.77
59289;BME280;45056;47.602;9.886;2023-04-23T06:13:35;92507.75;;;12.19;65.70
59289;BME280;45056;47.602;9.886;2023-04-23T06:16:07;92513.94;;;12.20;65.51
59289;BME280;45056;47.602;9.886;2023-04-23T06:18:35;92513.66;;;12.18;65.55
59289;BME280;45056;47.602;9.886;2023-04-23T06:21:04;92508.63;;;12.16;65.57
59289;BME280;45056;47.602;9.886;2023-04-23T06:23:33;92504.41;;;12.15;65.46
59289;BME280;45056;47.602;9.886;2023-04-23T06:26:02;92502.00;;;12.17;65.40
59289;BME280;45056;47.602;9.886;2023-04-23T06:28:31;92506.22;;;12.18;65.16
59289;BME280;45056;47.602;9.886;2023-04-23T06:30:59;92508.31;;;12.23;64.99
59289;BME280;45056;47.602;9.886;2023-04-23T06:33:29;92503.25;;;12.31;64.96
59289;BME280;45056;47.602;9.886;2023-04-23T06:35:57;92494.91;;;12.35;65.11
59289;BME280;45056;47.602;9.886;2023-04-23T06:38:26;92490.31;;;12.41;64.99
59289;BME280;45056;47.602;9.886;2023-04-23T06:40:54;92491.19;;;12.47;64.70
59289;BME280;45056;47.602;9.886;2023-04-23T06:43:22;92484.34;;;12.52;64.38
59289;BME280;45056;47.602;9.886;2023-04-23T06:45:51;92486.44;;;12.57;63.92
59289;BME280;45056;47.602;9.886;2023-04-23T06:48:19;92486.25;;;12.61;63.71
59289;BME280;45056;47.602;9.886;2023-04-23T06:50:49;92479.41;;;12.65;63.75
59289;BME280;45056;47.602;9.886;2023-04-23T06:53:17;92475.56;;;12.72;63.82
59289;BME280;45056;47.602;9.886;2023-04-23T06:55:45;92470.69;;;12.76;64.24
59289;BME280;45056;47.602;9.886;2023-04-23T06:58:15;92473.06;;;12.83;64.25
59289;BME280;45056;47.602;9.886;2023-04-23T07:00:43;92478.31;;;12.87;64.04
59289;BME280;45056;47.602;9.886;2023-04-23T07:03:11;92475.88;;;12.89;64.16
59289;BME280;45056;47.602;9.886;2023-04-23T07:05:39;92484.34;;;12.91;64.21
59289;BME280;45056;47.602;9.886;2023-04-23T07:08:09;92475.22;;;12.94;64.10
59289;BME280;45056;47.602;9.886;2023-04-23T07:10:37;92476.56;;;12.99;63.78
59289;BME280;45056;47.602;9.886;2023-04-23T07:13:05;92470.16;;;13.02;63.44
59289;BME280;45056;47.602;9.886;2023-04-23T07:15:33;92462.53;;;13.06;63.38
59289;BME280;45056;47.602;9.886;2023-04-23T07:18:01;92472.25;;;13.07;63.35
59289;BME280;45056;47.602;9.886;2023-04-23T07:20:29;92465.56;;;13.08;63.43
59289;BME280;45056;47.602;9.886;2023-04-23T07:22:59;92458.31;;;13.05;63.47
59289;BME280;45056;47.602;9.886;2023-04-23T07:25:30;92463.47;;;13.03;63.30
59289;BME280;45056;47.602;9.886;2023-04-23T07:27:58;92463.03;;;13.05;63.09
59289;BME280;45056;47.602;9.886;2023-04-23T07:30:27;92458.59;;;13.07;63.12
59289;BME280;45056;47.602;9.886;2023-04-23T07:32:55;92455.84;;;13.07;63.03
59289;BME280;45056;47.602;9.886;2023-04-23T07:35:23;92461.72;;;13.15;62.85
59289;BME280;45056;47.602;9.886;2023-04-23T07:37:52;92462.38;;;13.25;62.83
59289;BME280;45056;47.602;9.886;2023-04-23T07:40:21;92463.78;;;13.35;62.00
59289;BME280;45056;47.602;9.886;2023-04-23T07:42:51;92469.94;;;13.45;61.79
59289;BME280;45056;47.602;9.886;2023-04-23T07:45:19;92467.59;;;13.53;61.21
59289;BME280;45056;47.602;9.886;2023-04-23T07:47:49;92454.75;;;13.59;61.02
59289;BME280;45056;47.602;9.886;2023-04-23T07:50:17;92460.88;;;13.69;60.80
59289;BME280;45056;47.602;9.886;2023-04-23T07:52:45;92447.38;;;13.80;60.27
59289;BME280;45056;47.602;9.886;2023-04-23T07:55:14;92455.28;;;13.93;60.04
59289;BME280;45056;47.602;9.886;2023-04-23T07:57:42;92451.41;;;14.00;60.01
59289;BME280;45056;47.602;9.886;2023-04-23T08:00:12;92447.25;;;14.05;60.02
59289;BME280;45056;47.602;9.886;2023-04-23T08:02:41;92441.28;;;14.06;59.85
59289;BME280;45056;47.602;9.886;2023-04-23T08:05:09;92442.69;;;14.02;60.16
59289;BME280;45056;47.602;9.886;2023-04-23T08:07:37;92438.47;;;14.00;59.76
59289;BME280;45056;47.602;9.886;2023-04-23T08:10:06;92444.69;;;14.01;60.04
59289;BME280;45056;47.602;9.886;2023-04-23T08:12:35;92441.19;;;14.00;59.86
59289;BME280;45056;47.602;9.886;2023-04-23T08:15:03;92438.19;;;13.98;59.98
59289;BME280;45056;47.602;9.886;2023-04-23T08:17:33;92436.41;;;13.95;60.22
59289;BME280;45056;47.602;9.886;2023-04-23T08:20:02;92426.41;;;13.92;60.59
59289;BME280;45056;47.602;9.886;2023-04-23T08:22:32;92421.72;;;13.93;60.73
59289;BME280;45056;47.602;9.886;2023-04-23T08:25:00;92419.03;;;13.98;61.07
59289;BME280;45056;47.602;9.886;2023-04-23T08:27:28;92411.47;;;14.08;60.52
59289;BME280;45056;47.602;9.886;2023-04-23T08:29:56;92408.06;;;14.13;60.51
59289;BME280;45056;47.602;9.886;2023-04-23T08:32:24;92410.59;;;14.17;60.23
59289;BME280;45056;47.602;9.886;2023-04-23T08:34:54;92403.91;;;14.18;60.37
59289;BME280;45056;47.602;9.886;2023-04-23T08:37:22;92411.22;;;14.27;60.56
59289;BME280;45056;47.602;9.886;2023-04-23T08:39:50;92406.06;;;14.55;60.38
59289;BME280;45056;47.602;9.886;2023-04-23T08:42:24;92393.63;;;15.02;59.80
59289;BME280;45056;47.602;9.886;2023-04-23T08:45:02;92399.22;;;15.39;58.73
59289;BME280;45056;47.602;9.886;2023-04-23T08:47:31;92391.63;;;15.61;58.20
59289;BME280;45056;47.602;9.886;2023-04-23T08:50:03;92386.00;;;15.76;58.04
59289;BME280;45056;47.602;9.886;2023-04-23T08:52:33;92388.38;;;15.89;57.35
59289;BME280;45056;47.602;9.886;2023-04-23T08:55:07;92382.88;;;15.89;57.20
59289;BME280;45056;47.602;9.886;2023-04-23T08:57:38;92393.63;;;15.92;56.30
59289;BME280;45056;47.602;9.886;2023-04-23T09:00:08;92387.28;;;16.18;55.84
59289;BME280;45056;47.602;9.886;2023-04-23T09:02:40;92385.94;;;16.57;55.73
59289;BME280;45056;47.602;9.886;2023-04-23T09:05:11;92384.03;;;16.86;55.36
59289;BME280;45056;47.602;9.886;2023-04-23T09:07:40;92375.38;;;17.05;54.21
59289;BME280;45056;47.602;9.886;2023-04-23T09:10:11;92375.88;;;17.20;53.36
59289;BME280;45056;47.602;9.886;2023-04-23T09:12:42;92377.63;;;17.40;52.29
59289;BME280;45056;47.602;9.886;2023-04-23T09:15:12;92372.63;;;17.67;51.54
59289;BME280;45056;47.602;9.886;2023-04-23T09:17:42;92376.09;;;18.08;50.18
59289;BME280;45056;47.602;9.886;2023-04-23T09:20:13;92368.47;;;18.48;49.86
59289;BME280;45056;47.602;9.886;2023-04-23T09:22:45;92362.31;;;18.78;48.71
59289;BME280;45056;47.602;9.886;2023-04-23T09:25:17;92358.59;;;18.70;47.08
59289;BME280;45056;47.602;9.886;2023-04-23T09:27:47;92356.69;;;18.48;47.61
59289;BME280;45056;47.602;9.886;2023-04-23T09:30:18;92356.50;;;18.28;47.91
59289;BME280;45056;47.602;9.886;2023-04-23T09:32:46;92343.81;;;18.14;47.80
59289;BME280;45056;47.602;9.886;2023-04-23T09:35:17;92343.34;;;18.04;46.83
59289;BME280;45056;47.602;9.886;2023-04-23T09:37:48;92333.59;;;17.86;47.13
59289;BME280;45056;47.602;9.886;2023-04-23T09:40:21;92326.84;;;17.76;47.71
59289;BME280;45056;47.602;9.886;2023-04-23T09:42:51;92321.63;;;17.66;48.02
59289;BME280;45056;47.602;9.886;2023-04-23T09:45:20;92318.88;;;17.60;48.17
59289;BME280;45056;47.602;9.886;2023-04-23T09:47:52;92321.63;;;17.60;47.89
59289;BME280;45056;47.602;9.886;2023-04-23T09:50:31;92318.13;;;17.60;47.70
59289;BME280;45056;47.602;9.886;2023-04-23T09:53:00;92318.38;;;17.56;47.34
59289;BME280;45056;47.602;9.886;2023-04-23T09:55:30;92318.13;;;17.60;47.55
59289;BME280;45056;47.602;9.886;2023-04-23T09:58:01;92320.38;;;17.67;47.46
59289;BME280;45056;47.602;9.886;2023-04-23T10:00:34;92317.09;;;17.80;47.85
59289;BME280;45056;47.602;9.886;2023-04-23T10:03:05;92308.78;;;17.92;47.13
59289;BME280;45056;47.602;9.886;2023-04-23T10:05:39;92309.53;;;18.03;47.47
59289;BME280;45056;47.602;9.886;2023-04-23T10:08:08;92300.00;;;18.16;46.65
59289;BME280;45056;47.602;9.886;2023-04-23T10:10:36;92305.69;;;18.29;46.11
59289;BME280;45056;47.602;9.886;2023-04-23T10:13:05;92292.88;;;18.38;46.05
59289;BME280;45056;47.602;9.886;2023-04-23T10:15:34;92299.84;;;18.50;46.66
59289;BME280;45056;47.602;9.886;2023-04-23T10:18:03;92298.56;;;18.57;46.30
59289;BME280;45056;47.602;9.886;2023-04-23T10:20:34;92300.81;;;18.58;46.05
59289;BME280;45056;47.602;9.886;2023-04-23T10:23:07;92297.81;;;18.56;46.27
59289;BME280;45056;47.602;9.886;2023-04-23T10:25:39;92295.78;;;18.63;46.66
59289;BME280;45056;47.602;9.886;2023-04-23T10:28:09;92288.19;;;18.74;46.22
59289;BME280;45056;47.602;9.886;2023-04-23T10:30:42;92296.63;;;18.88;46.18
59289;BME280;45056;47.602;9.886;2023-04-23T10:33:11;92295.06;;;18.98;46.10
59289;BME280;45056;47.602;9.886;2023-04-23T10:35:42;92294.56;;;19.00;45.99
59289;BME280;45056;47.602;9.886;2023-04-23T10:38:13;92285.78;;;18.96;45.83
59289;BME280;45056;47.602;9.886;2023-04-23T10:40:46;92290.38;;;18.87;46.42
59289;BME280;45056;47.602;9.886;2023-04-23T10:43:18;92293.16;;;18.82;46.75
59289;BME280;45056;47.602;9.886;2023-04-23T10:45:48;92288.91;;;18.81;46.33
59289;BME280;45056;47.602;9.886;2023-04-23T10:48:16;92288.94;;;18.75;45.92
59289;BME280;45056;47.602;9.886;2023-04-23T10:50:45;92290.00;;;18.66;46.04
59289;BME280;45056;47.602;9.886;2023-04-23T10:53:19;92287.81;;;18.53;45.78
59289;BME280;45056;47.602;9.886;2023-04-23T10:55:48;92287.88;;;18.42;46.27
59289;BME280;45056;47.602;9.886;2023-04-23T10:58:16;92283.63;;;18.41;46.32
59289;BME280;45056;47.602;9.886;2023-04-23T11:00:45;92283.34;;;18.44;46.95
59289;BME280;45056;47.602;9.886;2023-04-23T11:03:30;92276.03;;;18.53;46.68
59289;BME280;45056;47.602;9.886;2023-04-23T11:06:02;92267.00;;;18.58;46.16
59289;BME280;45056;47.602;9.886;2023-04-23T11:08:34;92265.22;;;18.60;46.33
59289;BME280;45056;47.602;9.886;2023-04-23T11:11:06;92262.72;;;18.63;46.11
59289;BME280;45056;47.602;9.886;2023-04-23T11:13:35;92259.72;;;18.60;45.57
59289;BME280;45056;47.602;9.886;2023-04-23T11:16:20;92248.34;;;18.34;45.14
59289;BME280;45056;47.602;9.886;2023-04-23T11:18:57;92254.19;;;18.19;45.96
59289;BME280;45056;47.602;9.886;2023-04-23T11:21:56;92246.44;;;18.17;46.40
59289;BME280;45056;47.602;9.886;2023-04-23T11:24:31;92247.94;;;18.18;46.04
59289;BME280;45056;47.602;9.886;2023-04-23T11:27:05;92232.16;;;18.19;45.86
59289;BME280;45056;47.602;9.886;2023-04-23T11:29:36;92234.66;;;18.16;46.04
59289;BME280;45056;47.602;9.886;2023-04-23T11:32:06;92228.22;;;18.08;46.22
59289;BME280;45056;47.602;9.886;2023-04-23T11:34:37;92231.75;;;18.03;46.78
59289;BME280;45056;47.602;9.886;2023-04-23T11:37:08;92228.72;;;18.07;47.57
59289;BME280;45056;47.602;9.886;2023-04-23T11:39:39;92218.69;;;18.15;47.96
59289;BME280;45056;47.602;9.886;2023-04-23T11:42:10;92221.66;;;18.17;46.98
59289;BME280;45056;47.602;9.886;2023-04-23T11:44:39;92226.94;;;18.15;46.92
59289;BME280;45056;47.602;9.886;2023-04-23T11:47:09;92214.91;;;18.18;46.55
59289;BME280;45056;47.602;9.886;2023-04-23T11:49:40;92211.13;;;18.21;46.53
59289;BME280;45056;47.602;9.886;2023-04-23T11:52:10;92207.59;;;18.26;46.29
59289;BME280;45056;47.602;9.886;2023-04-23T11:54:40;92211.03;;;18.38;47.10
59289;BME280;45056;47.602;9.886;2023-04-23T11:57:08;92203.69;;;18.52;47.09
59289;BME280;45056;47.602;9.886;2023-04-23T11:59:37;92193.81;;;18.68;45.69
59289;BME280;45056;47.602;9.886;2023-04-23T12:02:05;92188.63;;;18.89;45.22
59289;BME280;45056;47.602;9.886;2023-04-23T12:04:33;92196.03;;;19.06;45.55
59289;BME280;45056;47.602;9.886;2023-04-23T12:07:01;92192.09;;;19.26;45.83
59289;BME280;45056;47.602;9.886;2023-04-23T12:09:31;92183.34;;;19.47;45.11
59289;BME280;45056;47.602;9.886;2023-04-23T12:12:03;92187.03;;;19.55;44.83
59289;BME280;45056;47.602;9.886;2023-04-23T12:14:31;92180.75;;;19.55;44.20
59289;BME280;45056;47.602;9.886;2023-04-23T12:17:09;92181.63;;;19.44;43.96
59289;BME280;45056;47.602;9.886;2023-04-23T12:19:38;92173.28;;;19.25;43.79
59289;BME280;45056;47.602;9.886;2023-04-23T12:22:10;92160.94;;;19.07;44.53
59289;BME280;45056;47.602;9.886;2023-04-23T12:24:48;92158.78;;;18.94;44.73
59289;BME280;45056;47.602;9.886;2023-04-23T12:27:20;92163.81;;;18.89;44.66
59289;BME280;45056;47.602;9.886;2023-04-23T12:29:58;92165.41;;;18.79;44.56
59289;BME280;45056;47.602;9.886;2023-04-23T12:32:26;92160.94;;;18.76;44.70
59289;BME280;45056;47.602;9.886;2023-04-23T12:34:55;92150.88;;;18.79;45.33
59289;BME280;45056;47.602;9.886;2023-04-23T12:37:24;92156.16;;;18.77;44.97
59289;BME280;45056;47.602;9.886;2023-04-23T12:39:53;92166.69;;;18.78;45.44
59289;BME280;45056;47.602;9.886;2023-04-23T12:42:25;92154.84;;;18.83;45.63
59289;BME280;45056;47.602;9.886;2023-04-23T12:44:53;92160.50;;;18.97;45.86
59289;BME280;45056;47.602;9.886;2023-04-23T12:47:21;92160.09;;;19.17;46.05
59289;BME280;45056;47.602;9.886;2023-04-23T12:49:49;92153.88;;;19.36;45.66
59289;BME280;45056;47.602;9.886;2023-04-23T12:52:21;92159.78;;;19.46;45.31
59289;BME280;45056;47.602;9.886;2023-04-23T12:54:49;92155.97;;;19.49;45.12
59289;BME280;45056;47.602;9.886;2023-04-23T12:57:35;92158.22;;;19.51;45.20
59289;BME280;45056;47.602;9.886;2023-04-23T13:00:07;92148.47;;;19.50;44.52
59289;BME280;45056;47.602;9.886;2023-04-23T13:02:35;92157.03;;;19.46;44.32
59289;BME280;45056;47.602;9.886;2023-04-23T13:05:04;92147.56;;;19.41;44.34
59289;BME280;45056;47.602;9.886;2023-04-23T13:07:32;92152.84;;;19.39;44.25
59289;BME280;45056;47.602;9.886;2023-04-23T13:10:00;92147.09;;;19.37;44.30
59289;BME280;45056;47.602;9.886;2023-04-23T13:12:28;92134.09;;;19.32;44.54